Impacts METAR Board
IDs:

KLAS - Las Vegas/McCarran I, NV, US

Updated at: 0800 UTC 18 Oct 2018
Potential Impact None Slight Moderate High
Time 17/20Z 17/21Z 17/22Z 17/23Z 18/00Z 18/01Z 18/02Z 18/03Z 18/04Z 18/05Z 18/06Z 18/07Z 18/08Z
Temp69 72 72 72 72 70 69 68 65 63 61 61 60
Dewpt34 34 34 33 33 34 32 33 34 34 33 33 33
Altim30.16 30.13 30.12 30.11 30.11 30.11 30.13 30.13 30.14 30.14 30.15 30.15 30.15
VIS10 10 10 10 10 10 10 10 10 10 10 10 10
CIG-- -- -- -- -- -- -- -- -- -- -- -- --
CoverSCTSCTFEWFEWFEWFEWFEWCLRCLRCLRCLRCLRCLR
FltCatVFRVFRVFRVFRVFRVFRVFRVFRVFRVFRVFRVFRVFR
WX--------------------------
WDir60204070303036040280260270240200
WSpd14 13 13 9 11 9 7 5 5 4 4 4 4
WGst17 21 -- -- -- -- -- -- -- -- -- -- --
Raw hourly METARs
KLAS 171956Z 06014G17KT 10SM FEW120 SCT250 21/01 A3016 RMK AO2 SLP202 T02060011
KLAS 172056Z 02013G21KT 10SM FEW120 SCT250 22/01 A3013 RMK AO2 SLP192 T02220011 58022
KLAS 172156Z 04013KT 10SM FEW120 FEW250 22/01 A3012 RMK AO2 SLP190 T02220011
KLAS 172256Z 07009KT 10SM FEW120 FEW250 22/01 A3011 RMK AO2 SLP185 T02220006
KLAS 172356Z 03011KT 10SM FEW120 FEW250 22/01 A3011 RMK AO2 SLP184 T02220006 10222 20183 56008
KLAS 180056Z 03009KT 10SM FEW120 FEW250 21/01 A3011 RMK AO2 SLP187 T02110011
KLAS 180156Z 36007KT 10SM FEW120 FEW250 21/00 A3013 RMK AO2 SLP191 T02060000
KLAS 180256Z 04005KT 10SM CLR 20/01 A3013 RMK AO2 SLP193 T02000006 52008
KLAS 180356Z 28005KT 10SM CLR 18/01 A3014 RMK AO2 SLP194 T01830011
KLAS 180456Z 26004KT 10SM CLR 17/01 A3014 RMK AO2 SLP196 T01720011
KLAS 180556Z 27004KT 10SM CLR 16/01 A3015 RMK AO2 SLP197 T01610006 10222 20161 52005
KLAS 180656Z 24004KT 10SM CLR 16/01 A3015 RMK AO2 SLP196 T01610006
KLAS 180756Z 20004KT 10SM CLR 16/01 A3015 RMK AO2 SLP197 T01560006 402220111



Page loaded:  08:52 UTC  |   01:52 AM Pacific  |   02:52 AM Mountain  |   03:52 AM Central  |   04:52 AM Eastern

 

ADVISORIES

FORECASTS

FORECASTS

OBSERVATIONS

USER TOOLS

ABOUT US